Wetterdaten: Woche 18.02.02 - 24.02.02 (KW8)
Datum Zeit Temperatur Luftfeuchte Luftdruck Regenmenge Wind Richtung Taupunkt Windchill
18.02.2002 00:00 -2.4 C 90 % 1022.0 hPa 0.0 l/m 0.3 km/h (0 Bft) O -3.8 C -2.4 C
18.02.2002 01:00 -3.0 C 91 % 1022.0 hPa 0.0 l/m 1.0 km/h (0 Bft) O-SO -4.3 C -3.3 C
18.02.2002 02:00 -3.3 C 90 % 1022.9 hPa 0.0 l/m 0.8 km/h (0 Bft) O-SO -4.7 C -3.6 C
18.02.2002 03:00 -3.7 C 90 % 1022.0 hPa 0.0 l/m 0.3 km/h (0 Bft) O-SO -5.2 C -3.7 C
18.02.2002 04:00 -4.1 C 90 % 1022.0 hPa 0.0 l/m 0.9 km/h (0 Bft) O-SO -5.5 C -4.3 C
18.02.2002 05:00 -4.1 C 90 % 1022.0 hPa 0.0 l/m 0.6 km/h (0 Bft) O-SO -5.5 C -4.3 C
18.02.2002 06:00 -3.7 C 90 % 1022.5 hPa 0.0 l/m 0.4 km/h (0 Bft) O-SO -5.1 C -3.7 C
18.02.2002 07:00 -3.4 C 91 % 1023.0 hPa 0.0 l/m 0.0 km/h (0 Bft) N -4.6 C -3.4 C
18.02.2002 08:00 -2.9 C 93 % 1023.0 hPa 0.0 l/m 0.5 km/h (0 Bft) O-SO -3.9 C -3.1 C
18.02.2002 09:00 -2.2 C 94 % 1023.2 hPa 0.0 l/m 1.9 km/h (1 Bft) O-SO -3.0 C -2.6 C
18.02.2002 10:00 -1.0 C 91 % 1023.1 hPa 0.0 l/m 4.1 km/h (1 Bft) O-SO -2.2 C -2.3 C
18.02.2002 11:00 1.6 C 86 % 1023.0 hPa 0.0 l/m 4.5 km/h (1 Bft) O-SO -0.5 C 0.3 C
18.02.2002 12:00 6.3 C 62 % 1022.5 hPa 0.0 l/m 8.6 km/h (2 Bft) W -0.6 C 4.7 C
18.02.2002 13:00 8.4 C 46 % 1022.0 hPa 0.0 l/m 23.7 km/h (4 Bft) W-NW -2.5 C 5.1 C
18.02.2002 14:00 8.5 C 44 % 1022.0 hPa 0.0 l/m 24.6 km/h (4 Bft) W-NW -3.1 C 5.0 C
18.02.2002 15:00 7.1 C 53 % 1022.0 hPa 0.0 l/m 26.2 km/h (4 Bft) W-NW -1.8 C 3.2 C
18.02.2002 16:00 5.9 C 58 % 1022.9 hPa 0.0 l/m 17.7 km/h (3 Bft) W-NW -1.8 C 2.7 C
18.02.2002 17:00 5.2 C 60 % 1023.0 hPa 0.0 l/m 23.2 km/h (4 Bft) W-NW -2.0 C 1.0 C
18.02.2002 18:00 4.6 C 65 % 1023.6 hPa 0.0 l/m 22.4 km/h (4 Bft) NW -1.4 C 0.6 C
18.02.2002 19:00 4.4 C 68 % 1024.1 hPa 0.0 l/m 19.8 km/h (3 Bft) NW -1.0 C 0.5 C
18.02.2002 20:00 3.7 C 70 % 1025.0 hPa 0.0 l/m 22.0 km/h (4 Bft) NW -1.4 C -0.6 C
18.02.2002 21:00 2.5 C 78 % 1025.6 hPa 0.0 l/m 21.4 km/h (4 Bft) W-NW -1.0 C -2.3 C
18.02.2002 22:00 2.1 C 84 % 1026.2 hPa 0.0 l/m 13.8 km/h (3 Bft) W-NW -0.3 C -1.3 C
18.02.2002 23:00 2.1 C 80 % 1026.2 hPa 0.0 l/m 18.2 km/h (3 Bft) W-NW -0.9 C -2.2 C
19.02.2002 00:00 2.2 C 76 % 1026.8 hPa 0.0 l/m 19.1 km/h (3 Bft) NW -1.7 C -2.1 C
19.02.2002 01:00 2.0 C 78 % 1027.2 hPa 0.0 l/m 16.1 km/h (3 Bft) W-NW -1.4 C -2.0 C
19.02.2002 02:00 2.0 C 76 % 1027.2 hPa 0.0 l/m 14.8 km/h (3 Bft) W-NW -1.8 C -1.5 C
19.02.2002 03:00 2.0 C 76 % 1027.2 hPa 0.0 l/m 13.3 km/h (3 Bft) W-NW -1.8 C -1.6 C
19.02.2002 04:00 2.0 C 76 % 1027.2 hPa 0.0 l/m 18.3 km/h (3 Bft) W-NW -1.7 C -2.4 C
19.02.2002 05:00 1.8 C 79 % 1027.6 hPa 0.0 l/m 14.9 km/h (3 Bft) W-NW -1.4 C -1.9 C
19.02.2002 06:00 1.7 C 81 % 1028.3 hPa 0.0 l/m 16.8 km/h (3 Bft) W-NW -1.2 C -2.4 C
19.02.2002 07:00 1.6 C 81 % 1028.6 hPa 0.0 l/m 12.3 km/h (3 Bft) W-NW -1.3 C -1.9 C
19.02.2002 08:00 1.9 C 77 % 1029.3 hPa 0.0 l/m 8.4 km/h (2 Bft) W -1.8 C -0.5 C
19.02.2002 09:00 2.9 C 65 % 1028.8 hPa 0.0 l/m 16.2 km/h (3 Bft) W-NW -3.0 C -0.6 C
19.02.2002 10:00 4.0 C 55 % 1028.3 hPa 0.0 l/m 24.5 km/h (4 Bft) W-NW -4.3 C -0.7 C
19.02.2002 11:00 4.8 C 47 % 1028.6 hPa 0.0 l/m 27.3 km/h (4 Bft) W-NW -5.4 C 0.1 C
19.02.2002 12:00 5.1 C 46 % 1028.3 hPa 0.0 l/m 25.7 km/h (4 Bft) NW -5.4 C 0.7 C
19.02.2002 13:00 5.6 C 44 % 1027.8 hPa 0.0 l/m 27.0 km/h (4 Bft) W-NW -5.6 C 1.2 C
19.02.2002 14:00 4.5 C 51 % 1027.2 hPa 0.0 l/m 21.8 km/h (4 Bft) W -4.8 C 0.4 C
19.02.2002 15:00 3.9 C 61 % 1026.6 hPa 0.3 l/m 14.2 km/h (3 Bft) W -3.0 C 0.7 C
19.02.2002 16:00 2.9 C 70 % 1026.2 hPa 0.3 l/m 10.8 km/h (2 Bft) SW -2.2 C 0.3 C
19.02.2002 17:00 2.2 C 74 % 1026.2 hPa 0.3 l/m 9.3 km/h (2 Bft) SO -2.0 C -0.3 C
19.02.2002 18:00 2.1 C 75 % 1026.2 hPa 0.0 l/m 15.4 km/h (3 Bft) SO -1.9 C -1.9 C
19.02.2002 19:00 2.3 C 76 % 1026.6 hPa 0.3 l/m 8.5 km/h (2 Bft) S-SO -1.4 C 0.1 C
19.02.2002 20:00 2.1 C 80 % 1026.2 hPa 0.6 l/m 7.2 km/h (2 Bft) S -1.0 C 0.1 C
19.02.2002 21:00 2.1 C 86 % 1026.2 hPa 1.2 l/m 8.2 km/h (2 Bft) S -0.1 C -0.1 C
19.02.2002 22:00 2.3 C 90 % 1026.1 hPa 1.5 l/m 2.9 km/h (1 Bft) SW 0.8 C 1.9 C
19.02.2002 23:00 2.7 C 89 % 1025.0 hPa 0.3 l/m 8.0 km/h (2 Bft) S-SW 1.0 C 0.9 C
20.02.2002 00:00 3.5 C 82 % 1023.9 hPa 0.0 l/m 16.4 km/h (3 Bft) SW 0.8 C 0.2 C
20.02.2002 01:00 3.8 C 79 % 1022.7 hPa 0.0 l/m 22.7 km/h (4 Bft) W-SW 0.6 C -0.6 C
20.02.2002 02:00 3.6 C 83 % 1021.7 hPa 0.3 l/m 20.8 km/h (4 Bft) W-SW 1.0 C -0.6 C
20.02.2002 03:00 3.8 C 82 % 1020.3 hPa 0.0 l/m 15.2 km/h (3 Bft) W 1.0 C 0.3 C
20.02.2002 04:00 4.4 C 77 % 1018.7 hPa 0.0 l/m 16.5 km/h (3 Bft) W 0.8 C 1.0 C
20.02.2002 05:00 5.0 C 73 % 1017.7 hPa 0.0 l/m 21.5 km/h (4 Bft) W 0.5 C 1.0 C
20.02.2002 06:00 5.0 C 72 % 1016.3 hPa 0.0 l/m 16.0 km/h (3 Bft) W 0.3 C 1.7 C
20.02.2002 07:00 4.9 C 73 % 1015.7 hPa 0.3 l/m 23.0 km/h (4 Bft) W-NW 0.4 C 0.6 C
20.02.2002 08:00 4.0 C 83 % 1015.3 hPa 0.3 l/m 24.8 km/h (4 Bft) W-NW 1.4 C -0.7 C
20.02.2002 09:00 4.3 C 80 % 1013.7 hPa 0.3 l/m 32.1 km/h (5 Bft) W 1.1 C -1.0 C
20.02.2002 10:00 4.3 C 81 % 1012.6 hPa 0.6 l/m 26.6 km/h (4 Bft) W 1.3 C -0.4 C
20.02.2002 11:00 4.0 C 86 % 1011.7 hPa 2.1 l/m 21.2 km/h (4 Bft) W 1.8 C -0.2 C
20.02.2002 12:00 4.1 C 87 % 1010.2 hPa 2.4 l/m 18.3 km/h (3 Bft) W-NW 2.1 C 0.4 C
20.02.2002 13:00 4.2 C 86 % 1008.7 hPa 1.8 l/m 19.2 km/h (3 Bft) W-NW 2.0 C 0.3 C
20.02.2002 14:00 4.1 C 88 % 1007.0 hPa 1.5 l/m 21.1 km/h (4 Bft) W-NW 2.2 C -0.2 C
20.02.2002 15:00 3.9 C 87 % 1005.6 hPa 2.1 l/m 26.5 km/h (4 Bft) W-NW 1.9 C -1.0 C
20.02.2002 16:00 3.7 C 88 % 1004.4 hPa 3.6 l/m 30.3 km/h (5 Bft) W-NW 2.0 C -1.6 C
20.02.2002 17:00 3.5 C 90 % 1003.1 hPa 4.8 l/m 21.8 km/h (4 Bft) W 2.0 C -0.8 C
20.02.2002 18:00 3.4 C 91 % 1002.5 hPa 4.5 l/m 18.4 km/h (3 Bft) W 2.1 C -0.4 C
20.02.2002 19:00 3.4 C 92 % 1001.5 hPa 3.0 l/m 12.3 km/h (3 Bft) W 2.2 C 0.5 C
20.02.2002 20:00 3.8 C 90 % 1001.1 hPa 3.3 l/m 23.4 km/h (4 Bft) W 2.2 C -0.7 C
20.02.2002 21:00 3.6 C 91 % 1001.1 hPa 2.7 l/m 14.5 km/h (3 Bft) W-NW 2.3 C 0.3 C
20.02.2002 22:00 3.3 C 91 % 1001.0 hPa 2.1 l/m 29.7 km/h (5 Bft) W-NW 2.0 C -2.1 C
20.02.2002 23:00 2.9 C 91 % 1000.0 hPa 1.8 l/m 18.7 km/h (3 Bft) W-NW 1.6 C -1.3 C
21.02.2002 00:00 2.6 C 90 % 1000.6 hPa 0.6 l/m 19.8 km/h (3 Bft) NW 1.1 C -1.8 C
21.02.2002 01:00 3.1 C 87 % 1001.1 hPa 0.0 l/m 25.4 km/h (4 Bft) W-NW 1.1 C -1.9 C
21.02.2002 02:00 3.3 C 84 % 1001.3 hPa 0.0 l/m 18.4 km/h (3 Bft) W-NW 0.8 C -0.8 C
21.02.2002 03:00 2.8 C 87 % 1002.1 hPa 0.0 l/m 6.7 km/h (2 Bft) W 0.9 C 1.3 C
21.02.2002 04:00 2.8 C 85 % 1002.1 hPa 0.0 l/m 11.6 km/h (2 Bft) W 0.5 C -0.2 C
21.02.2002 05:00 2.2 C 83 % 1003.5 hPa 1.5 l/m 14.1 km/h (3 Bft) W-NW -0.3 C -1.1 C
21.02.2002 06:00 0.7 C 90 % 1005.1 hPa 0.3 l/m 13.8 km/h (3 Bft) W-NW -0.8 C -2.7 C
21.02.2002 07:00 0.9 C 90 % 1006.5 hPa 0.0 l/m 29.4 km/h (5 Bft) W-NW -0.6 C -5.2 C
21.02.2002 08:00 0.9 C 84 % 1009.1 hPa 0.3 l/m 7.6 km/h (2 Bft) NW -1.5 C -0.8 C
21.02.2002 09:00 0.5 C 79 % 1011.8 hPa 0.0 l/m 2.9 km/h (1 Bft) N-NW -2.7 C -0.1 C
21.02.2002 10:00 0.8 C 68 % 1014.0 hPa 0.0 l/m 11.4 km/h (2 Bft) N-NW -4.4 C -2.0 C
21.02.2002 11:00 1.3 C 56 % 1015.8 hPa 0.0 l/m 6.9 km/h (2 Bft) NW -6.5 C -0.6 C
21.02.2002 12:00 1.7 C 54 % 1017.3 hPa 0.0 l/m 1.3 km/h (1 Bft) N-NO -6.6 C 1.6 C
21.02.2002 13:00 2.3 C 48 % 1017.9 hPa 0.0 l/m 2.5 km/h (1 Bft) N-NW -7.6 C 1.8 C
21.02.2002 14:00 2.0 C 52 % 1018.9 hPa 0.0 l/m 4.5 km/h (1 Bft) NW -6.8 C 0.8 C
21.02.2002 15:00 1.5 C 59 % 1019.4 hPa 0.0 l/m 4.5 km/h (1 Bft) W-NW -5.7 C 0.3 C
21.02.2002 16:00 1.0 C 61 % 1020.5 hPa 0.0 l/m 0.7 km/h (0 Bft) O-SO -5.7 C 0.8 C
21.02.2002 17:00 0.6 C 64 % 1021.5 hPa 0.0 l/m 3.4 km/h (1 Bft) O-SO -5.3 C -0.2 C
21.02.2002 18:00 -0.5 C 75 % 1022.6 hPa 0.0 l/m 1.2 km/h (1 Bft) SO -4.5 C -0.9 C
21.02.2002 19:00 -1.6 C 84 % 1023.7 hPa 0.0 l/m 1.7 km/h (1 Bft) O-SO -3.9 C -1.6 C
21.02.2002 20:00 -2.3 C 86 % 1023.8 hPa 0.0 l/m 3.1 km/h (1 Bft) O-SO -4.3 C -3.3 C
21.02.2002 21:00 -2.9 C 87 % 1024.1 hPa 0.0 l/m 0.0 km/h (0 Bft) N -4.8 C -2.9 C
21.02.2002 22:00 -3.9 C 88 % 1023.3 hPa 0.0 l/m 0.0 km/h (0 Bft) N -5.6 C -3.9 C
21.02.2002 23:00 -4.7 C 88 % 1024.0 hPa 0.0 l/m 0.2 km/h (0 Bft) O-SO -6.3 C -4.7 C
22.02.2002 00:00 -5.0 C 89 % 1023.5 hPa 0.0 l/m 0.0 km/h (0 Bft) N -6.6 C -5.0 C
22.02.2002 01:00 -5.6 C 88 % 1023.0 hPa 0.0 l/m 0.7 km/h (0 Bft) O-SO -7.2 C -5.8 C
22.02.2002 02:00 -6.0 C 89 % 1023.0 hPa 0.0 l/m 0.0 km/h (0 Bft) N -7.5 C -6.0 C
22.02.2002 03:00 -6.4 C 86 % 1022.0 hPa 0.0 l/m 0.0 km/h (0 Bft) N -8.3 C -6.4 C
22.02.2002 04:00 -5.1 C 88 % 1021.7 hPa 0.0 l/m 0.0 km/h (0 Bft) N -6.8 C -5.1 C
22.02.2002 05:00 -4.1 C 89 % 1020.9 hPa 0.0 l/m 0.4 km/h (0 Bft) O-SO -5.6 C -4.1 C
22.02.2002 06:00 -3.8 C 87 % 1020.8 hPa 0.0 l/m 3.4 km/h (1 Bft) O-SO -5.6 C -5.0 C
22.02.2002 07:00 -3.7 C 84 % 1019.9 hPa 0.0 l/m 2.3 km/h (1 Bft) O-SO -6.0 C -4.5 C
22.02.2002 08:00 -3.2 C 77 % 1019.6 hPa 0.0 l/m 3.9 km/h (1 Bft) O-SO -6.6 C -4.1 C
22.02.2002 09:00 -2.1 C 72 % 1018.9 hPa 0.0 l/m 9.6 km/h (2 Bft) O-SO -6.5 C -5.4 C
22.02.2002 10:00 -0.9 C 68 % 1018.9 hPa 0.0 l/m 11.6 km/h (2 Bft) S -6.0 C -4.6 C
22.02.2002 11:00 0.1 C 63 % 1018.9 hPa 0.0 l/m 11.6 km/h (2 Bft) S -6.1 C -3.3 C
22.02.2002 12:00 0.8 C 58 % 1018.0 hPa 0.0 l/m 11.6 km/h (2 Bft) S -6.5 C -2.4 C
22.02.2002 13:00 1.9 C 52 % 1016.8 hPa 0.0 l/m 10.7 km/h (2 Bft) S-SW -7.0 C -0.9 C
22.02.2002 14:00 2.5 C 49 % 1016.0 hPa 0.0 l/m 9.9 km/h (2 Bft) S-SW -7.1 C 0.1 C
22.02.2002 15:00 1.3 C 69 % 1015.4 hPa 0.3 l/m 0.3 km/h (0 Bft) W -3.9 C 1.3 C
22.02.2002 16:00 0.1 C 87 % 1014.7 hPa 1.5 l/m 0.2 km/h (0 Bft) NO -1.9 C 0.1 C
22.02.2002 17:00 1.0 C 88 % 1014.6 hPa 1.2 l/m 10.7 km/h (2 Bft) S -0.7 C -1.8 C
22.02.2002 18:00 1.1 C 89 % 1014.7 hPa 0.9 l/m 11.2 km/h (2 Bft) S-SW -0.5 C -2.0 C
22.02.2002 19:00 1.5 C 90 % 1014.5 hPa 1.5 l/m 14.1 km/h (3 Bft) SO 0.0 C -2.2 C
22.02.2002 20:00 2.4 C 92 % 1014.4 hPa 2.1 l/m 10.4 km/h (2 Bft) SO 1.3 C -0.4 C
22.02.2002 21:00 2.9 C 91 % 1013.6 hPa 0.0 l/m 12.1 km/h (2 Bft) S 1.6 C -0.1 C
22.02.2002 22:00 3.2 C 91 % 1013.3 hPa 0.3 l/m 10.1 km/h (2 Bft) S 1.8 C 0.6 C
22.02.2002 23:00 3.5 C 90 % 1012.6 hPa 0.0 l/m 11.5 km/h (2 Bft) SO 2.0 C 0.7 C
23.02.2002 00:00 3.7 C 89 % 1012.6 hPa 0.0 l/m 17.0 km/h (3 Bft) S 2.1 C -0.1 C
23.02.2002 01:00 3.9 C 89 % 1011.7 hPa 0.0 l/m 16.7 km/h (3 Bft) S 2.2 C 0.1 C
23.02.2002 02:00 4.1 C 88 % 1011.4 hPa 0.0 l/m 12.2 km/h (2 Bft) SO 2.3 C 1.3 C
23.02.2002 03:00 4.9 C 83 % 1010.5 hPa 0.0 l/m 13.5 km/h (3 Bft) S 2.2 C 2.0 C
23.02.2002 04:00 5.2 C 80 % 1010.5 hPa 0.0 l/m 13.1 km/h (3 Bft) S-SO 1.9 C 2.4 C
23.02.2002 05:00 4.9 C 86 % 1011.2 hPa 2.1 l/m 33.1 km/h (5 Bft) NW 2.7 C -0.2 C
23.02.2002 06:00 4.8 C 84 % 1010.8 hPa 0.0 l/m 27.3 km/h (4 Bft) W-NW 2.4 C 0.2 C
23.02.2002 07:00 5.4 C 74 % 1011.5 hPa 0.0 l/m 34.7 km/h (5 Bft) W-NW 1.2 C 0.3 C
23.02.2002 08:00 5.6 C 71 % 1011.5 hPa 0.0 l/m 20.5 km/h (4 Bft) W-NW 0.6 C 1.8 C
23.02.2002 09:00 6.2 C 65 % 1011.5 hPa 0.0 l/m 30.0 km/h (5 Bft) W-NW 0.1 C 1.7 C
23.02.2002 10:00 4.9 C 72 % 1012.4 hPa 0.0 l/m 41.5 km/h (6 Bft) W-NW 0.3 C -0.8 C
23.02.2002 11:00 5.5 C 65 % 1011.8 hPa 0.3 l/m 39.2 km/h (6 Bft) W-NW -0.5 C 0.1 C
23.02.2002 12:00 6.8 C 61 % 1011.6 hPa 0.0 l/m 37.8 km/h (5 Bft) W-NW -0.3 C 1.9 C
23.02.2002 13:00 6.2 C 68 % 1010.9 hPa 0.3 l/m 35.1 km/h (5 Bft) W-NW 0.7 C 1.3 C
23.02.2002 14:00 6.2 C 62 % 1009.4 hPa 0.0 l/m 34.1 km/h (5 Bft) W-NW -0.6 C 1.4 C
23.02.2002 15:00 5.3 C 72 % 1009.4 hPa 0.0 l/m 28.4 km/h (4 Bft) W-NW 0.7 C 0.7 C
23.02.2002 16:00 5.0 C 78 % 1008.7 hPa 0.3 l/m 21.0 km/h (4 Bft) W-SW 1.4 C 1.0 C
23.02.2002 17:00 5.0 C 77 % 1007.8 hPa 0.6 l/m 29.0 km/h (5 Bft) W 1.3 C 0.2 C
23.02.2002 18:00 4.8 C 78 % 1007.3 hPa 0.3 l/m 28.3 km/h (4 Bft) W 1.3 C 0.0 C
23.02.2002 19:00 5.8 C 68 % 1007.0 hPa 0.0 l/m 28.4 km/h (4 Bft) W 0.4 C 1.3 C
23.02.2002 20:00 6.0 C 69 % 1006.3 hPa 0.0 l/m 35.2 km/h (5 Bft) W-NW 0.7 C 1.0 C
23.02.2002 21:00 5.5 C 75 % 1006.4 hPa 0.3 l/m 38.5 km/h (5 Bft) W-NW 1.5 C 0.1 C
23.02.2002 22:00 3.7 C 76 % 1007.2 hPa 1.8 l/m 41.4 km/h (6 Bft) W-NW -0.1 C -2.4 C
23.02.2002 23:00 1.0 C 91 % 1008.4 hPa 0.3 l/m 21.9 km/h (4 Bft) W-NW -0.4 C -4.2 C
24.02.2002 00:00 1.1 C 90 % 1009.4 hPa 0.9 l/m 28.6 km/h (4 Bft) W-NW -0.3 C -4.9 C
24.02.2002 01:00 0.7 C 88 % 1010.5 hPa 0.6 l/m 25.1 km/h (4 Bft) W-NW -1.0 C -4.9 C
24.02.2002 02:00 -0.2 C 88 % 1011.5 hPa 0.6 l/m 14.4 km/h (3 Bft) NW -2.0 C -4.5 C
24.02.2002 03:00 -0.0 C 93 % 1011.5 hPa 0.3 l/m 6.3 km/h (2 Bft) NW -1.0 C -1.9 C
24.02.2002 04:00 -0.1 C 93 % 1011.7 hPa 1.2 l/m 9.5 km/h (2 Bft) NW -1.2 C -2.8 C
24.02.2002 05:00 0.0 C 93 % 1012.9 hPa 0.3 l/m 31.7 km/h (5 Bft) W-NW -1.0 C -6.5 C
24.02.2002 06:00 0.0 C 90 % 1013.6 hPa 0.0 l/m 31.6 km/h (5 Bft) W-NW -1.4 C -6.5 C
24.02.2002 07:00 0.3 C 86 % 1014.3 hPa 0.0 l/m 31.7 km/h (5 Bft) W-NW -1.8 C -6.1 C
24.02.2002 08:00 1.0 C 77 % 1014.8 hPa 0.0 l/m 38.9 km/h (5 Bft) W-NW -2.5 C -6.0 C
24.02.2002 09:00 1.6 C 73 % 1015.9 hPa 0.0 l/m 34.7 km/h (5 Bft) W-NW -2.8 C -4.8 C
24.02.2002 10:00 2.8 C 61 % 1016.9 hPa 0.0 l/m 28.8 km/h (5 Bft) W-NW -3.9 C -2.7 C
24.02.2002 11:00 3.4 C 54 % 1017.8 hPa 0.0 l/m 31.3 km/h (5 Bft) W-NW -5.0 C -2.1 C
24.02.2002 12:00 3.8 C 51 % 1018.5 hPa 0.0 l/m 30.6 km/h (5 Bft) W-NW -5.4 C -1.6 C
24.02.2002 13:00 4.0 C 47 % 1018.9 hPa 0.0 l/m 26.7 km/h (4 Bft) W-NW -6.4 C -0.9 C
24.02.2002 14:00 4.5 C 44 % 1018.9 hPa 0.0 l/m 22.2 km/h (4 Bft) W-NW -6.6 C 0.3 C
24.02.2002 15:00 4.8 C 43 % 1018.9 hPa 0.0 l/m 21.0 km/h (4 Bft) W-NW -6.8 C 0.8 C
24.02.2002 16:00 4.6 C 43 % 1018.9 hPa 0.0 l/m 13.6 km/h (3 Bft) W -6.9 C 1.7 C
24.02.2002 17:00 4.0 C 47 % 1018.9 hPa 0.0 l/m 12.2 km/h (2 Bft) W -6.3 C 1.2 C
24.02.2002 18:00 3.1 C 55 % 1018.9 hPa 0.0 l/m 3.4 km/h (1 Bft) W-SW -5.1 C 2.3 C
24.02.2002 19:00 3.2 C 55 % 1018.9 hPa 0.0 l/m 8.1 km/h (2 Bft) W -5.0 C 1.2 C
24.02.2002 20:00 3.2 C 54 % 1018.1 hPa 0.0 l/m 11.7 km/h (2 Bft) W -5.2 C 1.0 C
24.02.2002 21:00 3.5 C 57 % 1017.8 hPa 0.0 l/m 13.2 km/h (3 Bft) W -4.1 C 0.6 C
24.02.2002 22:00 3.2 C 62 % 1017.8 hPa 0.0 l/m 11.8 km/h (2 Bft) W -3.4 C 0.5 C
24.02.2002 23:00 1.9 C 80 % 1017.1 hPa 0.9 l/m 7.4 km/h (2 Bft) W -1.3 C -0.0 C
Min-Datum _ 22.02.02 24.02.02 20.02.02 - 18.02.02 - 22.02.02 22.02.02
_ Min-Zeit 03:36 15:11 22:59 - 00:02 - 03:36 01:27
Minimum _ -6.8 C 41 % 1000.0 hPa - 0.0 km/h (0 Bft) - -8.9 C -8.8 C
Max-Datum _ 18.02.02 18.02.02 19.02.02 20.02.02 23.02.02 - 23.02.02 18.02.02
_ Max-Zeit 14:29 09:38 07:42 16:00 22:13 - 05:19 12:47
Maximum _ 9.2 C 95 % 1029.3 hPa 4.8 l/m 69.5 km/h
W-NW (8 Bft)
- 3.1 C 7.6 C
Durchschnitt _ 2.1 C 76 % 1016.9 hPa #63.9 l/m 15.8 km/h (3 Bft) W-NW -1.9 C -1.0 C

Durchschnitt Minimum Temp.1.6 C
Durchschnitt Maximum Temp.2.6 C
© Kaiko 2002